createdAt,value
2022-09-23T00:01:15.163Z,100347.81
2022-09-23T00:03:46.904Z,100341.25
2022-09-23T00:06:17.201Z,100352.87
2022-09-23T00:08:44.845Z,100349.25
2022-09-23T00:11:15.020Z,100353.59
2022-09-23T00:13:44.113Z,100346.00
2022-09-23T00:16:21.711Z,100352.41
2022-09-23T00:18:50.843Z,100346.81
2022-09-23T00:21:19.978Z,100339.38
2022-09-23T00:23:48.207Z,100340.44
2022-09-23T00:26:18.971Z,100344.78
2022-09-23T00:28:47.212Z,100337.34
2022-09-23T00:31:16.984Z,100333.13
2022-09-23T00:33:44.525Z,100335.47
2022-09-23T00:36:16.941Z,100330.38
2022-09-23T00:38:45.273Z,100328.59
2022-09-23T00:41:16.177Z,100328.72
2022-09-23T00:43:58.367Z,100334.44
2022-09-23T00:46:36.184Z,100326.69
2022-09-23T00:49:23.819Z,100324.19
2022-09-23T00:51:58.999Z,100325.56
2022-09-23T00:54:26.531Z,100321.94
2022-09-23T00:56:55.289Z,100315.94
2022-09-23T00:59:24.417Z,100309.13
2022-09-23T01:01:56.404Z,100315.37
2022-09-23T01:04:24.806Z,100322.72
2022-09-23T01:06:52.326Z,100319.47
2022-09-23T01:09:20.702Z,100317.69
2022-09-23T01:12:39.610Z,100320.50
2022-09-23T01:15:42.676Z,100328.69
2022-09-23T01:18:13.192Z,100320.06
2022-09-23T01:21:03.718Z,100324.16
2022-09-23T01:23:53.377Z,100320.62
2022-09-23T01:26:35.763Z,100324.09
2022-09-23T01:29:28.257Z,100319.72
2022-09-23T01:32:26.232Z,100324.56
2022-09-23T01:34:59.738Z,100328.66
2022-09-23T01:37:41.554Z,100322.44
2022-09-23T01:40:34.232Z,100315.59
2022-09-23T01:43:11.170Z,100323.09
2022-09-23T01:45:43.523Z,100323.62
2022-09-23T01:48:19.274Z,100322.28
2022-09-23T01:50:56.312Z,100320.72
2022-09-23T01:53:45.409Z,100316.03
2022-09-23T01:56:17.416Z,100312.25
2022-09-23T01:58:50.846Z,100321.66
2022-09-23T02:01:24.067Z,100314.56
2022-09-23T02:03:59.619Z,100318.13
2022-09-23T02:06:33.651Z,100312.28
2022-09-23T02:09:06.195Z,100319.44
2022-09-23T02:11:36.362Z,100320.06
2022-09-23T02:14:14.820Z,100316.53
2022-09-23T02:16:51.334Z,100321.13
2022-09-23T02:19:28.177Z,100318.47
2022-09-23T02:22:03.622Z,100314.87
2022-09-23T02:24:34.640Z,100324.25
2022-09-23T02:27:26.363Z,100318.09
2022-09-23T02:30:09.680Z,100309.59
2022-09-23T02:32:46.126Z,100313.53
2022-09-23T02:35:37.353Z,100306.66
2022-09-23T02:38:23.067Z,100313.41
2022-09-23T02:40:57.503Z,100310.25
2022-09-23T02:43:36.132Z,100316.31
2022-09-23T02:46:05.185Z,100323.22
2022-09-23T02:48:43.352Z,100311.56
2022-09-23T02:51:11.028Z,100320.53
2022-09-23T02:53:38.405Z,100321.87
2022-09-23T02:56:22.377Z,100315.88
2022-09-23T02:58:54.245Z,100314.75
2022-09-23T03:01:40.401Z,100311.50
2022-09-23T03:04:17.924Z,100319.44
2022-09-23T03:07:06.731Z,100311.72
2022-09-23T03:09:40.550Z,100310.84
2022-09-23T03:12:07.786Z,100312.50
2022-09-23T03:14:48.360Z,100315.84
2022-09-23T03:17:26.212Z,100311.37
2022-09-23T03:20:25.699Z,100315.31
2022-09-23T03:22:57.227Z,100329.75
2022-09-23T03:25:25.636Z,100320.81
2022-09-23T03:27:57.516Z,100325.06
2022-09-23T03:30:26.485Z,100321.47
2022-09-23T03:32:54.873Z,100322.59
2022-09-23T03:35:24.472Z,100322.16
2022-09-23T03:38:07.220Z,100316.44
2022-09-23T03:40:41.973Z,100317.00
2022-09-23T03:43:12.737Z,100314.09
2022-09-23T03:45:41.375Z,100310.72
2022-09-23T03:48:09.042Z,100318.97
2022-09-23T03:50:36.711Z,100320.94
2022-09-23T03:53:04.074Z,100312.41
2022-09-23T03:55:32.322Z,100314.75
2022-09-23T03:58:02.396Z,100318.13
2022-09-23T04:00:29.809Z,100318.78
2022-09-23T04:02:57.796Z,100308.97
2022-09-23T04:05:25.210Z,100317.12
2022-09-23T04:07:53.226Z,100315.22
2022-09-23T04:10:20.881Z,100316.56
2022-09-23T04:12:48.251Z,100319.47
2022-09-23T04:15:15.649Z,100328.19
2022-09-23T04:17:43.262Z,100324.59
2022-09-23T04:20:10.611Z,100317.78
2022-09-23T04:22:38.691Z,100321.59
2022-09-23T04:25:06.927Z,100317.12
2022-09-23T04:27:37.612Z,100317.25
2022-09-23T04:30:07.014Z,100315.56
2022-09-23T04:32:34.417Z,100320.38
2022-09-23T04:35:01.802Z,100316.47
2022-09-23T04:37:29.490Z,100322.37
2022-09-23T04:39:56.870Z,100321.59
2022-09-23T04:42:24.270Z,100319.59
2022-09-23T04:44:51.898Z,100331.31
2022-09-23T04:47:19.381Z,100335.13
2022-09-23T04:49:46.738Z,100335.34
2022-09-23T04:52:14.366Z,100337.56
2022-09-23T04:54:41.757Z,100335.44
2022-09-23T04:57:11.164Z,100334.84
2022-09-23T04:59:38.799Z,100330.88
2022-09-23T05:02:06.192Z,100333.97
2022-09-23T05:04:33.687Z,100343.84
2022-09-23T05:07:03.508Z,100346.97
2022-09-23T05:09:31.169Z,100355.44
2022-09-23T05:11:58.540Z,100355.69
2022-09-23T05:14:26.206Z,100358.00
2022-09-23T05:16:53.603Z,100346.72
2022-09-23T05:19:21.343Z,100353.91
2022-09-23T05:21:49.318Z,100359.06
2022-09-23T05:24:16.804Z,100359.41
2022-09-23T05:26:44.157Z,100361.41
2022-09-23T05:29:11.866Z,100361.41
2022-09-23T05:31:39.320Z,100360.16
2022-09-23T05:34:06.948Z,100366.47
2022-09-23T05:36:38.676Z,100362.19
2022-09-23T05:39:07.725Z,100363.34
2022-09-23T05:41:36.036Z,100363.25
2022-09-23T05:44:03.481Z,100372.09
2022-09-23T05:46:31.795Z,100368.69
2022-09-23T05:49:03.004Z,100365.19
2022-09-23T05:51:34.699Z,100366.19
2022-09-23T05:54:05.851Z,100366.00
2022-09-23T05:56:34.387Z,100359.69
2022-09-23T05:59:03.364Z,100360.56
2022-09-23T06:01:34.164Z,100356.22
2022-09-23T06:04:04.504Z,100359.78
2022-09-23T06:06:34.361Z,100361.34
2022-09-23T06:09:02.176Z,100364.16
2022-09-23T06:11:31.329Z,100359.09
2022-09-23T06:14:02.915Z,100358.22
2022-09-23T06:16:32.999Z,100358.81
2022-09-23T06:19:05.883Z,100356.63
2022-09-23T06:21:36.370Z,100356.94
2022-09-23T06:24:04.063Z,100356.97
2022-09-23T06:26:33.944Z,100362.13
2022-09-23T06:29:02.866Z,100359.47
2022-09-23T06:31:30.636Z,100356.56
2022-09-23T06:34:11.932Z,100355.25
2022-09-23T06:36:44.403Z,100361.94
2022-09-23T06:39:14.079Z,100358.72
2022-09-23T06:41:42.294Z,100356.19
2022-09-23T06:44:11.543Z,100364.34
2022-09-23T06:46:38.958Z,100362.66
2022-09-23T06:49:06.693Z,100371.88
2022-09-23T06:51:34.478Z,100367.59
2022-09-23T06:54:01.973Z,100370.25
2022-09-23T06:56:31.505Z,100364.69
2022-09-23T06:59:02.171Z,100365.63
2022-09-23T07:01:29.908Z,100372.31
2022-09-23T07:03:57.382Z,100369.47
2022-09-23T07:06:24.734Z,100365.09
2022-09-23T07:08:53.233Z,100355.84
2022-09-23T07:11:22.598Z,100355.19
2022-09-23T07:13:50.592Z,100364.31
2022-09-23T07:16:18.404Z,100353.47
2022-09-23T07:18:45.873Z,100368.53
2022-09-23T07:21:16.171Z,100358.53
2022-09-23T07:23:46.064Z,100362.47
2022-09-23T07:26:14.599Z,100367.19
2022-09-23T07:28:42.439Z,100368.75
2022-09-23T07:31:12.925Z,100376.56
2022-09-23T07:33:44.254Z,100366.63
2022-09-23T07:36:17.231Z,100369.16
2022-09-23T07:38:46.064Z,100370.62
2022-09-23T07:41:16.976Z,100374.50
2022-09-23T07:43:45.153Z,100366.97
2022-09-23T07:46:15.142Z,100361.84
2022-09-23T07:48:44.183Z,100368.09
2022-09-23T07:51:18.696Z,100366.09
2022-09-23T07:53:47.233Z,100365.53
2022-09-23T07:56:14.544Z,100360.81
2022-09-23T07:58:41.938Z,100365.47
2022-09-23T08:01:10.979Z,100367.16
2022-09-23T08:03:39.543Z,100369.25
2022-09-23T08:06:13.678Z,100370.62
2022-09-23T08:08:43.778Z,100358.59
2022-09-23T08:11:14.325Z,100371.53
2022-09-23T08:13:42.519Z,100362.28
2022-09-23T08:16:10.352Z,100365.28
2022-09-23T08:18:38.035Z,100368.44
2022-09-23T08:21:05.758Z,100356.97
2022-09-23T08:23:33.950Z,100358.66
2022-09-23T08:26:05.206Z,100358.19
2022-09-23T08:28:33.867Z,100358.34
2022-09-23T08:31:01.435Z,100348.47
2022-09-23T08:33:28.919Z,100349.19
2022-09-23T08:36:01.472Z,100352.34
2022-09-23T08:38:29.606Z,100343.38
2022-09-23T08:41:17.948Z,100346.00
2022-09-23T08:43:49.182Z,100342.69
2022-09-23T08:46:22.407Z,100345.78
2022-09-23T08:48:50.409Z,100355.19
2022-09-23T08:51:24.267Z,100347.84
2022-09-23T08:53:52.382Z,100349.00
2022-09-23T08:56:22.891Z,100357.72
2022-09-23T08:59:04.469Z,100346.91
2022-09-23T09:01:53.814Z,100352.09
2022-09-23T09:04:36.474Z,100351.00
2022-09-23T09:07:31.895Z,100344.81
2022-09-23T09:10:06.172Z,100346.41
2022-09-23T09:12:43.140Z,100344.34
2022-09-23T09:15:20.374Z,100343.88
2022-09-23T09:18:02.104Z,100343.59
2022-09-23T09:20:29.736Z,100342.69
2022-09-23T09:23:00.682Z,100340.88
2022-09-23T09:25:34.405Z,100341.19
2022-09-23T09:28:03.924Z,100337.84
2022-09-23T09:30:32.721Z,100335.09
2022-09-23T09:33:16.059Z,100340.19
2022-09-23T09:36:11.854Z,100332.84
2022-09-23T09:38:39.199Z,100331.03
2022-09-23T09:41:18.127Z,100315.19
2022-09-23T09:43:56.920Z,100322.63
2022-09-23T09:46:39.240Z,100316.09
2022-09-23T09:49:23.129Z,100322.03
2022-09-23T09:52:12.187Z,100316.53
2022-09-23T09:54:39.840Z,100319.72
2022-09-23T09:57:16.660Z,100305.19
2022-09-23T09:59:44.152Z,100310.34
2022-09-23T10:02:12.973Z,100299.19
2022-09-23T10:04:41.210Z,100294.31
2022-09-23T10:07:13.409Z,100299.47
2022-09-23T10:09:48.373Z,100297.13
2022-09-23T10:12:21.408Z,100296.53
2022-09-23T10:14:51.375Z,100295.06
2022-09-23T10:17:24.580Z,100301.91
2022-09-23T10:20:00.813Z,100295.94
2022-09-23T10:22:32.353Z,100281.00
2022-09-23T10:25:04.602Z,100295.00
2022-09-23T10:27:35.029Z,100285.38
2022-09-23T10:30:14.963Z,100289.78
2022-09-23T10:32:45.454Z,100289.84
2022-09-23T10:35:17.769Z,100297.75
2022-09-23T10:37:59.652Z,100301.19
2022-09-23T10:40:49.320Z,100284.50
2022-09-23T10:44:03.991Z,100277.59
2022-09-23T10:46:41.737Z,100276.69
2022-09-23T10:49:18.184Z,100281.78
2022-09-23T10:52:04.014Z,100275.59
2022-09-23T10:55:02.513Z,100277.91
2022-09-23T10:57:45.100Z,100282.75
2022-09-23T11:00:28.315Z,100276.50
2022-09-23T11:03:26.847Z,100276.28
2022-09-23T11:06:12.909Z,100283.59
2022-09-23T11:08:53.003Z,100281.19
2022-09-23T11:11:34.125Z,100273.34
2022-09-23T11:14:08.119Z,100277.47
2022-09-23T11:17:04.810Z,100281.88
2022-09-23T11:20:11.566Z,100267.34
2022-09-23T11:23:17.115Z,100266.38
2022-09-23T11:25:50.644Z,100274.41
2022-09-23T11:28:33.225Z,100262.75
2022-09-23T11:31:28.273Z,100265.47
2022-09-23T11:34:26.474Z,100266.12
2022-09-23T11:37:02.376Z,100265.16
2022-09-23T11:39:51.815Z,100254.50
2022-09-23T11:42:33.285Z,100251.59
2022-09-23T11:45:13.152Z,100249.59
2022-09-23T11:47:48.228Z,100253.28
2022-09-23T11:50:23.522Z,100242.59
2022-09-23T11:53:02.398Z,100245.25
2022-09-23T11:55:34.863Z,100244.69
2022-09-23T11:58:23.147Z,100233.87
2022-09-23T12:01:01.281Z,100235.12
2022-09-23T12:03:44.869Z,100235.50
2022-09-23T12:06:16.018Z,100229.25
2022-09-23T12:08:44.475Z,100229.12
2022-09-23T12:11:32.142Z,100221.88
2022-09-23T12:14:10.502Z,100224.19
2022-09-23T12:16:45.060Z,100225.03
2022-09-23T12:19:43.201Z,100218.28
2022-09-23T12:22:20.578Z,100214.25
2022-09-23T12:24:56.800Z,100204.81
2022-09-23T12:27:45.695Z,100200.69
2022-09-23T12:30:25.729Z,100194.28
2022-09-23T12:32:54.349Z,100196.44
2022-09-23T12:35:25.463Z,100193.37
2022-09-23T12:37:53.145Z,100196.69
2022-09-23T12:40:47.015Z,100185.13
2022-09-23T12:43:32.989Z,100187.72
2022-09-23T12:46:29.981Z,100181.03
2022-09-23T12:49:00.853Z,100177.59
2022-09-23T12:51:30.022Z,100170.94
2022-09-23T12:53:59.709Z,100166.19
2022-09-23T12:56:29.846Z,100166.37
2022-09-23T12:58:59.439Z,100166.22
2022-09-23T13:01:27.569Z,100162.84
2022-09-23T13:04:15.676Z,100155.06
2022-09-23T13:06:47.407Z,100145.34
2022-09-23T13:09:24.849Z,100148.03
2022-09-23T13:11:53.215Z,100151.91
2022-09-23T13:14:27.404Z,100150.59
2022-09-23T13:16:58.440Z,100149.50
2022-09-23T13:19:25.926Z,100142.31
2022-09-23T13:21:53.209Z,100147.19
2022-09-23T13:24:42.407Z,100148.69
2022-09-23T13:27:20.735Z,100145.19
2022-09-23T13:30:06.034Z,100148.16
2022-09-23T13:32:37.640Z,100145.50
2022-09-23T13:35:27.321Z,100141.16
2022-09-23T13:37:55.295Z,100136.88
2022-09-23T13:40:24.101Z,100140.16
2022-09-23T13:43:02.013Z,100134.84
2022-09-23T13:45:34.143Z,100133.69
2022-09-23T13:48:06.020Z,100140.88
2022-09-23T13:50:35.313Z,100133.00
2022-09-23T13:53:07.047Z,100136.22
2022-09-23T13:55:39.235Z,100132.50
2022-09-23T13:58:21.618Z,100136.44
2022-09-23T14:00:50.225Z,100135.66
2022-09-23T14:03:25.024Z,100134.22
2022-09-23T14:05:53.991Z,100127.22
2022-09-23T14:08:22.034Z,100124.31
2022-09-23T14:10:49.688Z,100137.19
2022-09-23T14:13:28.282Z,100125.81
2022-09-23T14:15:59.288Z,100129.72
2022-09-23T14:18:39.793Z,100126.25
2022-09-23T14:21:25.873Z,100121.94
2022-09-23T14:23:53.254Z,100122.47
2022-09-23T14:26:21.870Z,100120.91
2022-09-23T14:28:49.330Z,100117.84
2022-09-23T14:31:16.853Z,100115.37
2022-09-23T14:33:44.492Z,100117.19
2022-09-23T14:36:34.492Z,100115.50
2022-09-23T14:39:10.500Z,100107.34
2022-09-23T14:41:40.301Z,100118.19
2022-09-23T14:44:18.716Z,100117.53
2022-09-23T14:47:00.490Z,100112.22
2022-09-23T14:49:28.136Z,100108.56
2022-09-23T14:52:00.616Z,100106.41
2022-09-23T14:54:35.562Z,100097.87
2022-09-23T14:57:05.974Z,100107.63
2022-09-23T14:59:36.407Z,100101.13
2022-09-23T15:02:27.708Z,100095.53
2022-09-23T15:05:08.739Z,100093.72
2022-09-23T15:07:38.911Z,100100.78
2022-09-23T15:10:09.795Z,100101.75
2022-09-23T15:12:45.073Z,100094.78
2022-09-23T15:15:13.760Z,100095.50
2022-09-23T15:17:41.755Z,100100.84
2022-09-23T15:20:19.107Z,100099.47
2022-09-23T15:22:48.707Z,100097.41
2022-09-23T15:25:25.682Z,100102.28
2022-09-23T15:28:16.776Z,100097.72
2022-09-23T15:30:44.796Z,100099.62
2022-09-23T15:33:16.221Z,100097.31
2022-09-23T15:35:49.704Z,100097.87
2022-09-23T15:38:17.821Z,100097.53
2022-09-23T15:40:45.238Z,100099.78
2022-09-23T15:43:21.994Z,100095.47
2022-09-23T15:45:55.922Z,100093.63
2022-09-23T15:48:26.123Z,100096.09
2022-09-23T15:50:54.740Z,100084.09
2022-09-23T15:53:26.094Z,100091.59
2022-09-23T15:55:54.176Z,100085.16
2022-09-23T15:58:22.549Z,100093.12
2022-09-23T16:00:56.381Z,100095.75
2022-09-23T16:03:30.845Z,100095.94
2022-09-23T16:06:02.963Z,100089.88
2022-09-23T16:08:32.916Z,100094.13
2022-09-23T16:11:00.707Z,100086.16
2022-09-23T16:13:28.205Z,100090.38
2022-09-23T16:15:56.369Z,100093.53
2022-09-23T16:18:23.867Z,100095.84
2022-09-23T16:20:51.659Z,100094.78
2022-09-23T16:23:40.023Z,100104.00
2022-09-23T16:26:15.693Z,100099.78
2022-09-23T16:28:44.526Z,100100.97
2022-09-23T16:31:15.937Z,100099.22
2022-09-23T16:33:44.754Z,100097.06
2022-09-23T16:36:28.931Z,100099.97
2022-09-23T16:39:00.584Z,100098.63
2022-09-23T16:41:32.252Z,100097.59
2022-09-23T16:44:01.072Z,100109.19
2022-09-23T16:46:29.359Z,100100.00
2022-09-23T16:48:57.626Z,100109.88
2022-09-23T16:51:30.564Z,100102.63
2022-09-23T16:53:59.164Z,100110.38
2022-09-23T16:56:29.072Z,100111.34
2022-09-23T16:58:57.092Z,100101.94
2022-09-23T17:01:45.539Z,100103.19
2022-09-23T17:04:14.304Z,100102.13
2022-09-23T17:06:50.130Z,100101.03
2022-09-23T17:09:23.420Z,100101.37
2022-09-23T17:11:58.733Z,100102.91
2022-09-23T17:14:26.367Z,100096.56
2022-09-23T17:16:53.725Z,100100.19
2022-09-23T17:19:21.129Z,100099.62
2022-09-23T17:21:48.780Z,100105.25
2022-09-23T17:24:16.140Z,100109.50
2022-09-23T17:26:49.357Z,100107.03
2022-09-23T17:29:20.492Z,100108.13
2022-09-23T17:31:47.876Z,100112.41
2022-09-23T17:34:16.377Z,100112.13
2022-09-23T17:36:44.006Z,100113.25
2022-09-23T17:39:11.536Z,100122.00
2022-09-23T17:41:39.124Z,100121.50
2022-09-23T17:44:08.099Z,100123.66
2022-09-23T17:46:35.536Z,100118.81
2022-09-23T17:49:04.042Z,100116.56
2022-09-23T17:51:31.740Z,100119.38
2022-09-23T17:53:59.158Z,100126.84
2022-09-23T17:56:26.945Z,100128.31
2022-09-23T17:58:54.619Z,100127.28
2022-09-23T18:01:24.141Z,100121.84
2022-09-23T18:03:59.445Z,100130.59
2022-09-23T18:06:29.320Z,100127.84
2022-09-23T18:09:00.777Z,100133.81
2022-09-23T18:11:29.666Z,100129.34
2022-09-23T18:13:58.173Z,100129.56
2022-09-23T18:16:28.098Z,100137.78
2022-09-23T18:18:57.839Z,100139.84
2022-09-23T18:21:27.830Z,100138.59
2022-09-23T18:23:59.814Z,100146.91
2022-09-23T18:26:34.391Z,100135.59
2022-09-23T18:29:02.109Z,100141.56
2022-09-23T18:31:32.584Z,100139.22
2022-09-23T18:34:01.719Z,100136.22
2022-09-23T18:36:29.282Z,100136.06
2022-09-23T18:38:56.741Z,100145.09
2022-09-23T18:41:24.625Z,100144.56
2022-09-23T18:43:52.684Z,100152.91
2022-09-23T18:46:24.902Z,100151.56
2022-09-23T18:49:11.860Z,100148.75
2022-09-23T18:51:56.307Z,100149.78
2022-09-23T18:54:25.304Z,100155.28
2022-09-23T18:56:52.950Z,100152.31
2022-09-23T18:59:24.873Z,100149.50
2022-09-23T19:01:55.533Z,100143.19
2022-09-23T19:04:25.431Z,100156.81
2022-09-23T19:06:56.271Z,100152.06
2022-09-23T19:09:23.921Z,100154.31
2022-09-23T19:11:52.577Z,100148.53
2022-09-23T19:14:20.273Z,100146.31
2022-09-23T19:16:49.252Z,100151.66
2022-09-23T19:19:16.860Z,100149.06
2022-09-23T19:21:44.512Z,100153.59
2022-09-23T19:24:15.698Z,100153.34
2022-09-23T19:26:44.185Z,100148.75
2022-09-23T19:29:16.615Z,100151.88
2022-09-23T19:31:44.516Z,100159.56
2022-09-23T19:34:19.801Z,100157.62
2022-09-23T19:36:48.037Z,100154.38
2022-09-23T19:39:17.674Z,100157.75
2022-09-23T19:41:46.188Z,100160.41
2022-09-23T19:44:16.501Z,100158.19
2022-09-23T19:46:46.328Z,100152.09
2022-09-23T19:49:13.976Z,100155.25
2022-09-23T19:51:41.632Z,100159.00
2022-09-23T19:54:09.385Z,100157.41
2022-09-23T19:56:36.844Z,100158.09
2022-09-23T19:59:07.422Z,100161.09
2022-09-23T20:01:35.043Z,100160.25
2022-09-23T20:04:02.955Z,100154.31
2022-09-23T20:06:31.625Z,100149.75
2022-09-23T20:09:00.728Z,100155.19
2022-09-23T20:11:28.927Z,100157.09
2022-09-23T20:14:01.613Z,100144.12
2022-09-23T20:16:32.529Z,100152.47
2022-09-23T20:19:00.733Z,100149.63
2022-09-23T20:21:29.383Z,100148.56
2022-09-23T20:23:57.833Z,100151.66
2022-09-23T20:26:44.048Z,100149.16
2022-09-23T20:29:12.030Z,100147.50
2022-09-23T20:31:41.604Z,100145.37
2022-09-23T20:34:10.466Z,100146.78
2022-09-23T20:36:40.948Z,100152.19
2022-09-23T20:39:09.903Z,100153.44
2022-09-23T20:41:39.367Z,100157.56
2022-09-23T20:44:10.449Z,100148.50
2022-09-23T20:46:38.931Z,100147.75
2022-09-23T20:49:08.814Z,100150.47
2022-09-23T20:51:37.035Z,100143.13
2022-09-23T20:54:04.512Z,100143.34
2022-09-23T20:56:32.204Z,100147.41
2022-09-23T20:59:00.530Z,100142.19
2022-09-23T21:01:28.200Z,100139.06
2022-09-23T21:03:56.060Z,100144.44
2022-09-23T21:06:26.370Z,100144.03
2022-09-23T21:08:54.616Z,100137.44
2022-09-23T21:11:22.917Z,100139.75
2022-09-23T21:13:51.292Z,100142.34
2022-09-23T21:16:21.497Z,100142.88
2022-09-23T21:18:51.019Z,100144.41
2022-09-23T21:21:19.691Z,100152.66
2022-09-23T21:23:47.854Z,100145.03
2022-09-23T21:26:19.365Z,100149.22
2022-09-23T21:28:48.847Z,100152.09
2022-09-23T21:31:25.738Z,100153.38
2022-09-23T21:34:01.014Z,100155.91
2022-09-23T21:36:30.667Z,100153.53
2022-09-23T21:38:59.036Z,100152.31
2022-09-23T21:41:26.373Z,100153.13
2022-09-23T21:43:56.424Z,100165.16
2022-09-23T21:46:24.584Z,100158.75
2022-09-23T21:48:53.711Z,100159.47
2022-09-23T21:51:26.515Z,100162.31
2022-09-23T21:53:55.549Z,100154.34
2022-09-23T21:56:25.360Z,100158.41
2022-09-23T21:58:57.351Z,100166.75
2022-09-23T22:01:36.528Z,100166.37
2022-09-23T22:04:09.505Z,100167.41
2022-09-23T22:06:38.364Z,100155.19
2022-09-23T22:09:09.031Z,100157.81
2022-09-23T22:11:56.145Z,100159.63
2022-09-23T22:14:25.979Z,100154.41
2022-09-23T22:16:58.962Z,100157.50
2022-09-23T22:19:35.500Z,100160.19
2022-09-23T22:22:15.563Z,100153.16
2022-09-23T22:24:44.941Z,100164.34
2022-09-23T22:27:13.619Z,100161.53
2022-09-23T22:29:59.802Z,100158.97
2022-09-23T22:32:46.334Z,100161.16
2022-09-23T22:35:19.100Z,100165.50
2022-09-23T22:37:47.395Z,100150.88
2022-09-23T22:40:15.745Z,100152.63
2022-09-23T22:42:43.737Z,100158.59
2022-09-23T22:45:12.131Z,100168.09
2022-09-23T22:47:41.155Z,100156.91
2022-09-23T22:50:09.302Z,100158.59
2022-09-23T22:52:37.941Z,100162.16
2022-09-23T22:55:08.070Z,100155.03
2022-09-23T22:57:36.499Z,100162.16
2022-09-23T23:00:05.527Z,100161.66
2022-09-23T23:02:33.077Z,100159.19
2022-09-23T23:05:00.984Z,100166.13
2022-09-23T23:07:28.597Z,100162.37
2022-09-23T23:09:55.942Z,100159.16
2022-09-23T23:12:24.202Z,100158.19
2022-09-23T23:14:51.796Z,100158.97
2022-09-23T23:17:19.242Z,100163.53
2022-09-23T23:19:47.482Z,100160.44
2022-09-23T23:22:15.096Z,100156.97
2022-09-23T23:24:42.465Z,100154.25
2022-09-23T23:27:09.919Z,100148.66
2022-09-23T23:29:37.743Z,100155.00
2022-09-23T23:32:06.012Z,100152.25
2022-09-23T23:34:33.417Z,100149.28
2022-09-23T23:37:01.441Z,100146.50
2022-09-23T23:39:28.837Z,100150.44
2022-09-23T23:41:58.090Z,100144.88
2022-09-23T23:44:26.809Z,100143.38
2022-09-23T23:46:54.918Z,100143.91
2022-09-23T23:49:22.634Z,100134.78
2022-09-23T23:51:50.292Z,100139.56
2022-09-23T23:54:17.645Z,100142.63
2022-09-23T23:56:45.011Z,100142.53
2022-09-23T23:59:12.908Z,100142.72
